Rotterdam Express — DMRX — position and weather

sailwx.info

Track history (hours):
 
Tides and Currents Weather Stations Pressure Air Temp Water Temp Dewpoint Dewpoint Depression Visibility Wind Speed Wind Dir Waves Ship Positions

Rotterdam Express

Last reported at 2016-Dec-02 16:31 UTC. Time now 2016-Dec-08 04:10 UTC.
Position N 09°14' W 079°55'.

Length 294 m; beam 32.2 m; draft 13.6 m.

Type: Ship. MMSI: 211335760.

Date/timePositionNaut miles runAvg speedWind from/ knotsBaromVisibWave heightAir tempDewpointWater temp
2016-Dec-02 16:31N 09°14' W 079°55'2 2.1
2016-Dec-02 15:29N 09°16' W 079°55'0 0.5
2016-Dec-02 14:33N 09°17' W 079°55'2 2.3
2016-Dec-02 13:33N 09°19' W 079°55'6 5.5
2016-Dec-02 12:33N 09°25' W 079°56'0 0.3
2016-Dec-02 11:26N 09°25' W 079°56'0 0.0
2016-Dec-02 10:32N 09°25' W 079°56'0 0.0
2016-Dec-02 09:29N 09°25' W 079°56'0 0.0
2016-Dec-02 08:32N 09°25' W 079°56'0 0.0
2016-Dec-02 07:32N 09°24' W 079°56'0 0.0
2016-Dec-02 06:32N 09°24' W 079°56'0 0.0
2016-Dec-02 05:26N 09°24' W 079°56'0 0.1
2016-Dec-02 04:31N 09°24' W 079°56'0 0.0
2016-Dec-02 03:31N 09°24' W 079°56'0 0.0
2016-Dec-02 02:31N 09°24' W 079°56'0 0.0
2016-Dec-02 01:28N 09°24' W 079°56'0 0.1
2016-Dec-01 23:22N 09°24' W 079°56'0 0.0
2016-Dec-01 21:28N 09°25' W 079°56'0 0.0
2016-Dec-01 20:28N 09°25' W 079°56'0 0.0
2016-Dec-01 19:31N 09°25' W 079°56'0 0.0
2016-Dec-01 18:31N 09°24' W 079°56'0 0.0
2016-Dec-01 16:27N 09°24' W 079°56'0 0.0
2016-Dec-01 14:33N 09°25' W 079°56'  
2016-Nov-26 23:32N 16°25' W 062°32'1515.8
2016-Nov-26 22:33N 16°30' W 062°16'1615.9
2016-Nov-26 21:33N 16°35' W 062°01'1615.6
2016-Nov-26 20:33N 16°42' W 061°46'1515.4
2016-Nov-26 19:33N 16°50' W 061°32'1615.8
2016-Nov-26 18:33N 16°59' W 061°18'1515.3
2016-Nov-26 17:34N 17°06' W 061°05'  
Track history (hours):
 
Tides and Currents Weather Stations Pressure Air Temp Water Temp Dewpoint Dewpoint Depression Visibility Wind Speed Wind Dir Waves Ship Positions

Rotterdam Express

Last reported at 2016-Dec-02 16:31 UTC. Time now 2016-Dec-08 04:10 UTC.
Position N 09°14' W 079°55'.

Length 294 m; beam 32.2 m; draft 13.6 m.

Type: Ship. MMSI: 211335760.

Date/timePositionNaut miles runAvg speedWind from/ knotsBaromVisibWave heightAir tempDewpointWater temp
2016-Dec-02 16:31N 09°14' W 079°55'2 2.1
2016-Dec-02 15:29N 09°16' W 079°55'0 0.5
2016-Dec-02 14:33N 09°17' W 079°55'2 2.3
2016-Dec-02 13:33N 09°19' W 079°55'6 5.5
2016-Dec-02 12:33N 09°25' W 079°56'0 0.3
2016-Dec-02 11:26N 09°25' W 079°56'0 0.0
2016-Dec-02 10:32N 09°25' W 079°56'0 0.0
2016-Dec-02 09:29N 09°25' W 079°56'0 0.0
2016-Dec-02 08:32N 09°25' W 079°56'0 0.0
2016-Dec-02 07:32N 09°24' W 079°56'0 0.0
2016-Dec-02 06:32N 09°24' W 079°56'0 0.0
2016-Dec-02 05:26N 09°24' W 079°56'0 0.1
2016-Dec-02 04:31N 09°24' W 079°56'0 0.0
2016-Dec-02 03:31N 09°24' W 079°56'0 0.0
2016-Dec-02 02:31N 09°24' W 079°56'0 0.0
2016-Dec-02 01:28N 09°24' W 079°56'0 0.1
2016-Dec-01 23:22N 09°24' W 079°56'0 0.0
2016-Dec-01 21:28N 09°25' W 079°56'0 0.0
2016-Dec-01 20:28N 09°25' W 079°56'0 0.0
2016-Dec-01 19:31N 09°25' W 079°56'0 0.0
2016-Dec-01 18:31N 09°24' W 079°56'0 0.0
2016-Dec-01 16:27N 09°24' W 079°56'0 0.0
2016-Dec-01 14:33N 09°25' W 079°56'  
2016-Nov-26 23:32N 16°25' W 062°32'1515.8
2016-Nov-26 22:33N 16°30' W 062°16'1615.9
2016-Nov-26 21:33N 16°35' W 062°01'1615.6
2016-Nov-26 20:33N 16°42' W 061°46'1515.4
2016-Nov-26 19:33N 16°50' W 061°32'1615.8
2016-Nov-26 18:33N 16°59' W 061°18'1515.3
2016-Nov-26 17:34N 17°06' W 061°05'  

Dump ship's entire track history